createdAt,value
2023-02-16T00:00:31.500Z,44.33
2023-02-16T00:01:16.268Z,46.17
2023-02-16T00:01:48.503Z,44.07
2023-02-16T00:02:20.355Z,45.13
2023-02-16T00:02:52.187Z,45.47
2023-02-16T00:03:24.057Z,43.83
2023-02-16T00:03:57.153Z,44.13
2023-02-16T00:04:31.250Z,43.30
2023-02-16T00:05:03.193Z,44.97
2023-02-16T00:05:35.394Z,45.30
2023-02-16T00:06:07.637Z,45.50
2023-02-16T00:06:39.369Z,44.87
2023-02-16T00:07:11.084Z,45.43
2023-02-16T00:07:42.989Z,47.27
2023-02-16T00:08:14.952Z,46.37
2023-02-16T00:08:49.276Z,45.90
2023-02-16T00:09:23.194Z,47.10
2023-02-16T00:09:54.924Z,47.83
2023-02-16T00:10:31.484Z,45.90
2023-02-16T00:11:21.519Z,46.43
2023-02-16T00:12:12.046Z,47.27
2023-02-16T00:13:02.668Z,44.60
2023-02-16T00:13:52.906Z,45.07
2023-02-16T00:14:26.451Z,45.47
2023-02-16T00:14:58.701Z,45.07
2023-02-16T00:15:30.649Z,45.77
2023-02-16T00:16:02.589Z,45.40
2023-02-16T00:16:35.199Z,46.33
2023-02-16T00:17:11.138Z,48.13
2023-02-16T00:17:43.004Z,48.07
2023-02-16T00:18:20.326Z,47.87
2023-02-16T00:18:52.886Z,48.97
2023-02-16T00:19:36.993Z,47.70
2023-02-16T00:20:15.556Z,46.50
2023-02-16T00:20:49.034Z,45.60
2023-02-16T00:21:21.938Z,46.70
2023-02-16T00:21:59.273Z,45.40
2023-02-16T00:22:31.025Z,46.50
2023-02-16T00:23:02.843Z,46.53
2023-02-16T00:23:34.645Z,46.70
2023-02-16T00:24:06.778Z,46.67
2023-02-16T00:24:38.680Z,47.80
2023-02-16T00:25:10.973Z,46.70
2023-02-16T00:25:43.464Z,46.50
2023-02-16T00:26:24.236Z,45.57
2023-02-16T00:26:57.409Z,45.57
2023-02-16T00:27:32.526Z,47.33
2023-02-16T00:28:12.620Z,47.63
2023-02-16T00:28:45.612Z,47.77
2023-02-16T00:29:24.795Z,47.10
2023-02-16T00:29:56.686Z,48.53
2023-02-16T00:30:28.480Z,49.20
2023-02-16T00:31:00.351Z,48.27
2023-02-16T00:31:32.284Z,49.63
2023-02-16T00:32:06.304Z,49.07
2023-02-16T00:32:38.219Z,49.43
2023-02-16T00:33:17.788Z,48.37
2023-02-16T00:33:50.140Z,45.57
2023-02-16T00:34:27.915Z,44.33
2023-02-16T00:35:00.259Z,44.93
2023-02-16T00:35:32.065Z,44.60
2023-02-16T00:36:04.056Z,46.20
2023-02-16T00:36:35.821Z,48.17
2023-02-16T00:37:11.447Z,47.10
2023-02-16T00:37:43.421Z,48.57
2023-02-16T00:38:15.216Z,46.93
2023-02-16T00:38:47.225Z,45.53
2023-02-16T00:39:19.204Z,45.90
2023-02-16T00:39:50.995Z,46.80
2023-02-16T00:40:22.865Z,48.03
2023-02-16T00:40:54.636Z,48.07
2023-02-16T00:41:45.081Z,46.37
2023-02-16T00:42:27.097Z,47.53
2023-02-16T00:42:58.931Z,48.23
2023-02-16T00:43:31.272Z,46.67
2023-02-16T00:44:03.449Z,46.97
2023-02-16T00:44:41.332Z,46.63
2023-02-16T00:45:20.216Z,46.30
2023-02-16T00:45:52.325Z,48.17
2023-02-16T00:46:24.145Z,47.33
2023-02-16T00:46:56.091Z,46.10
2023-02-16T00:47:32.473Z,45.47
2023-02-16T00:48:04.949Z,45.10
2023-02-16T00:48:36.839Z,46.17
2023-02-16T00:49:19.660Z,46.53
2023-02-16T00:49:54.179Z,45.93
2023-02-16T00:50:31.888Z,46.23
2023-02-16T00:51:13.761Z,45.37
2023-02-16T00:51:52.742Z,46.80
2023-02-16T00:52:34.446Z,47.43
2023-02-16T00:53:06.305Z,46.73
2023-02-16T00:53:38.070Z,45.50
2023-02-16T00:54:10.007Z,45.27
2023-02-16T00:54:41.794Z,46.03
2023-02-16T00:55:19.377Z,46.90
2023-02-16T00:55:51.338Z,47.33
2023-02-16T00:56:23.365Z,47.03
2023-02-16T00:56:55.248Z,46.83
2023-02-16T00:57:29.751Z,47.73
2023-02-16T00:58:08.868Z,45.27
2023-02-16T00:58:40.973Z,45.23
2023-02-16T00:59:20.925Z,45.43
2023-02-16T01:00:06.439Z,42.10
2023-02-16T01:00:43.061Z,44.43
2023-02-16T01:01:18.420Z,47.20
2023-02-16T01:01:50.542Z,46.87
2023-02-16T01:02:22.413Z,47.87
2023-02-16T01:03:00.991Z,45.63
2023-02-16T01:03:32.954Z,46.07
2023-02-16T01:04:08.065Z,47.53
2023-02-16T01:04:39.995Z,43.70
2023-02-16T01:05:12.886Z,45.30
2023-02-16T01:05:44.976Z,47.17
2023-02-16T01:06:35.368Z,46.23
2023-02-16T01:07:39.636Z,46.03
2023-02-16T01:08:33.059Z,45.23
2023-02-16T01:09:32.712Z,46.60
2023-02-16T01:10:23.836Z,47.13
2023-02-16T01:10:59.121Z,45.20
2023-02-16T01:11:31.016Z,45.90
2023-02-16T01:12:13.473Z,46.90
2023-02-16T01:12:45.355Z,47.30
2023-02-16T01:13:18.194Z,47.77
2023-02-16T01:13:51.925Z,47.53
2023-02-16T01:14:23.909Z,46.30
2023-02-16T01:14:56.346Z,46.47
2023-02-16T01:15:28.141Z,46.23
2023-02-16T01:16:00.453Z,45.57
2023-02-16T01:16:43.144Z,47.13
2023-02-16T01:17:14.998Z,45.23
2023-02-16T01:17:46.800Z,44.87
2023-02-16T01:18:19.713Z,44.40
2023-02-16T01:18:52.962Z,45.20
2023-02-16T01:19:24.976Z,43.97
2023-02-16T01:19:57.006Z,43.90
2023-02-16T01:20:29.019Z,44.53
2023-02-16T01:21:00.903Z,46.07
2023-02-16T01:21:32.853Z,46.03
2023-02-16T01:22:05.800Z,46.83
2023-02-16T01:22:37.593Z,44.90
2023-02-16T01:23:09.932Z,44.57
2023-02-16T01:23:41.727Z,45.40
2023-02-16T01:24:13.603Z,44.40
2023-02-16T01:24:45.488Z,43.93
2023-02-16T01:25:17.815Z,45.73
2023-02-16T01:25:49.653Z,45.67
2023-02-16T01:26:22.084Z,44.07
2023-02-16T01:26:54.072Z,44.93
2023-02-16T01:27:25.842Z,45.63
2023-02-16T01:27:57.755Z,43.83
2023-02-16T01:28:29.926Z,45.30
2023-02-16T01:29:01.867Z,47.43
2023-02-16T01:29:33.685Z,45.80
2023-02-16T01:30:12.815Z,45.13
2023-02-16T01:30:45.066Z,47.40
2023-02-16T01:31:17.713Z,46.77
2023-02-16T01:31:49.788Z,45.47
2023-02-16T01:32:21.780Z,45.97
2023-02-16T01:32:54.119Z,45.83
2023-02-16T01:33:25.949Z,45.87
2023-02-16T01:33:57.757Z,48.03
2023-02-16T01:34:29.501Z,45.93
2023-02-16T01:35:01.258Z,46.43
2023-02-16T01:35:34.407Z,45.83
2023-02-16T01:36:15.307Z,47.07
2023-02-16T01:36:48.704Z,47.20
2023-02-16T01:37:20.511Z,45.57
2023-02-16T01:37:52.427Z,45.60
2023-02-16T01:38:29.162Z,44.87
2023-02-16T01:39:01.770Z,45.67
2023-02-16T01:39:33.562Z,46.07
2023-02-16T01:40:05.856Z,45.40
2023-02-16T01:40:44.637Z,45.17
2023-02-16T01:41:44.419Z,46.27
2023-02-16T01:42:39.211Z,47.27
2023-02-16T01:43:22.608Z,48.40
2023-02-16T01:44:02.789Z,46.33
2023-02-16T01:44:49.827Z,48.30
2023-02-16T01:45:32.897Z,50.10
2023-02-16T01:46:26.776Z,48.57
2023-02-16T01:47:34.892Z,47.93
2023-02-16T01:48:21.093Z,47.60
2023-02-16T01:48:52.872Z,46.77
2023-02-16T01:49:24.979Z,47.97
2023-02-16T01:49:57.511Z,47.50
2023-02-16T01:50:46.090Z,48.97
2023-02-16T01:51:47.991Z,48.20
2023-02-16T01:52:42.022Z,46.77
2023-02-16T01:53:23.177Z,48.13
2023-02-16T01:54:13.503Z,47.93
2023-02-16T01:54:59.181Z,49.67
2023-02-16T01:55:39.424Z,47.40
2023-02-16T01:56:24.120Z,46.53
2023-02-16T01:57:04.723Z,49.63
2023-02-16T01:57:39.376Z,48.33
2023-02-16T01:58:28.657Z,47.57
2023-02-16T01:59:08.823Z,48.77
2023-02-16T02:00:12.510Z,50.37
2023-02-16T02:00:50.022Z,50.30
2023-02-16T02:01:43.066Z,49.53
2023-02-16T02:02:17.795Z,47.97
2023-02-16T02:03:19.772Z,47.47
2023-02-16T02:04:09.885Z,50.13
2023-02-16T02:05:11.999Z,46.07
2023-02-16T02:05:43.858Z,48.63
2023-02-16T02:06:23.837Z,49.10
2023-02-16T02:06:55.670Z,49.73
2023-02-16T02:07:37.115Z,48.60
2023-02-16T02:08:33.804Z,48.60
2023-02-16T02:09:26.292Z,46.93
2023-02-16T02:10:09.512Z,47.93
2023-02-16T02:11:01.410Z,51.40
2023-02-16T02:11:43.369Z,52.33
2023-02-16T02:12:24.156Z,49.90
2023-02-16T02:13:04.069Z,49.47
2023-02-16T02:13:52.072Z,47.43
2023-02-16T02:14:30.984Z,49.97
2023-02-16T02:15:21.240Z,51.73
2023-02-16T02:15:53.243Z,48.67
2023-02-16T02:16:27.815Z,48.47
2023-02-16T02:17:03.884Z,49.77
2023-02-16T02:17:37.410Z,50.63
2023-02-16T02:18:09.149Z,49.90
2023-02-16T02:18:40.922Z,50.17
2023-02-16T02:19:12.757Z,51.23
2023-02-16T02:19:47.379Z,49.97
2023-02-16T02:21:20.672Z,48.23
2023-02-16T02:22:37.010Z,59.07
2023-02-16T02:23:33.245Z,51.07
2023-02-16T02:24:42.114Z,52.10
2023-02-16T02:25:31.508Z,50.93
2023-02-16T02:26:34.053Z,52.60
2023-02-16T02:27:27.705Z,47.10
2023-02-16T02:28:14.525Z,50.53
2023-02-16T02:29:09.485Z,51.87
2023-02-16T02:29:41.510Z,50.40
2023-02-16T02:30:40.821Z,49.40
2023-02-16T02:31:21.250Z,51.17
2023-02-16T02:32:13.414Z,49.73
2023-02-16T02:33:13.310Z,53.27
2023-02-16T02:34:09.457Z,54.57
2023-02-16T02:35:04.509Z,52.00
2023-02-16T02:35:57.121Z,52.97
2023-02-16T02:36:42.164Z,52.67
2023-02-16T02:37:44.104Z,53.17
2023-02-16T02:38:47.899Z,52.50
2023-02-16T02:40:02.619Z,50.73
2023-02-16T02:40:42.300Z,49.13
2023-02-16T02:41:55.345Z,51.53
2023-02-16T02:42:55.567Z,52.80
2023-02-16T02:43:39.133Z,52.43
2023-02-16T02:44:15.492Z,51.17
2023-02-16T02:44:53.407Z,53.37
2023-02-16T02:45:41.042Z,52.97
2023-02-16T02:46:31.739Z,55.03
2023-02-16T02:47:03.832Z,53.53
2023-02-16T02:47:44.285Z,53.93
2023-02-16T02:48:16.123Z,54.53
2023-02-16T02:48:47.895Z,53.20
2023-02-16T02:49:19.815Z,53.33
2023-02-16T02:49:53.424Z,50.83
2023-02-16T02:51:13.396Z,52.30
2023-02-16T02:51:45.177Z,52.97
2023-02-16T02:52:17.220Z,53.50
2023-02-16T02:52:49.043Z,52.47
2023-02-16T02:53:21.068Z,51.30
2023-02-16T02:54:26.097Z,50.73
2023-02-16T02:55:16.632Z,54.33
2023-02-16T02:56:13.730Z,54.13
2023-02-16T02:57:13.260Z,53.70
2023-02-16T02:58:08.757Z,55.10
2023-02-16T02:59:00.340Z,56.37
2023-02-16T02:59:55.040Z,54.67
2023-02-16T03:00:41.677Z,54.90
2023-02-16T03:01:18.955Z,55.47
2023-02-16T03:01:56.812Z,56.37
2023-02-16T03:02:30.745Z,56.13
2023-02-16T03:03:21.994Z,54.83
2023-02-16T03:03:58.264Z,51.23
2023-02-16T03:04:32.786Z,52.67
2023-02-16T03:05:09.533Z,50.50
2023-02-16T03:05:51.281Z,51.80
2023-02-16T03:06:32.828Z,53.83
2023-02-16T03:07:07.389Z,53.57
2023-02-16T03:07:48.604Z,52.97
2023-02-16T03:08:25.582Z,52.97
2023-02-16T03:09:11.610Z,53.37
2023-02-16T03:09:44.711Z,52.43
2023-02-16T03:10:45.933Z,51.40
2023-02-16T03:11:43.945Z,54.07
2023-02-16T03:12:34.982Z,54.93
2023-02-16T03:13:16.773Z,56.53
2023-02-16T03:13:58.849Z,52.73
2023-02-16T03:14:38.101Z,54.03
2023-02-16T03:15:11.201Z,56.60
2023-02-16T03:15:46.862Z,52.83
2023-02-16T03:16:31.289Z,52.73
2023-02-16T03:17:28.687Z,52.77
2023-02-16T03:18:22.664Z,54.67
2023-02-16T03:19:15.723Z,54.80
2023-02-16T03:20:09.687Z,56.00
2023-02-16T03:21:02.490Z,51.33
2023-02-16T03:21:54.376Z,54.67
2023-02-16T03:22:45.474Z,54.87
2023-02-16T03:23:36.002Z,54.43
2023-02-16T03:24:30.615Z,55.10
2023-02-16T03:25:21.234Z,54.00
2023-02-16T03:26:11.668Z,54.17
2023-02-16T03:27:02.540Z,56.63
2023-02-16T03:28:01.077Z,53.37
2023-02-16T03:28:56.665Z,55.60
2023-02-16T03:29:29.371Z,57.77
2023-02-16T03:30:02.856Z,55.57
2023-02-16T03:30:35.481Z,57.37
2023-02-16T03:31:11.951Z,56.70
2023-02-16T03:31:46.636Z,57.00
2023-02-16T03:32:19.077Z,55.73
2023-02-16T03:33:31.087Z,57.33
2023-02-16T03:34:03.266Z,52.60
2023-02-16T03:34:37.528Z,55.50
2023-02-16T03:35:12.849Z,56.87
2023-02-16T03:35:46.432Z,56.63
2023-02-16T03:36:18.419Z,58.73
2023-02-16T03:36:58.523Z,58.80
2023-02-16T03:37:30.647Z,58.07
2023-02-16T03:38:03.019Z,57.77
2023-02-16T03:38:35.369Z,57.17
2023-02-16T03:39:58.085Z,58.27
2023-02-16T03:40:35.021Z,56.43
2023-02-16T03:41:06.933Z,58.77
2023-02-16T03:41:44.258Z,59.97
2023-02-16T03:42:16.067Z,55.37
2023-02-16T03:42:51.576Z,58.83
2023-02-16T03:43:28.053Z,58.87
2023-02-16T03:44:00.396Z,59.83
2023-02-16T03:44:32.139Z,59.77
2023-02-16T03:45:04.457Z,60.03
2023-02-16T03:45:41.367Z,59.90
2023-02-16T03:46:13.419Z,55.83
2023-02-16T03:46:46.088Z,58.63
2023-02-16T03:47:18.289Z,59.20
2023-02-16T03:47:50.135Z,60.50
2023-02-16T03:48:22.187Z,58.57
2023-02-16T03:48:54.026Z,58.50
2023-02-16T03:49:25.840Z,59.43
2023-02-16T03:49:57.663Z,57.43
2023-02-16T03:50:30.054Z,61.10
2023-02-16T03:51:02.173Z,61.03
2023-02-16T03:51:34.747Z,62.73
2023-02-16T03:52:06.570Z,61.57
2023-02-16T03:52:38.380Z,62.73
2023-02-16T03:53:10.248Z,60.60
2023-02-16T03:53:42.042Z,60.23
2023-02-16T03:54:14.255Z,59.00
2023-02-16T03:54:46.109Z,62.77
2023-02-16T03:55:18.064Z,63.90
2023-02-16T03:55:49.971Z,64.30
2023-02-16T03:56:21.857Z,62.63
2023-02-16T03:56:53.659Z,62.57
2023-02-16T03:57:25.443Z,63.53
2023-02-16T03:57:57.188Z,63.50
2023-02-16T03:58:29.132Z,61.57
2023-02-16T03:59:00.974Z,58.17
2023-02-16T03:59:32.779Z,59.13
2023-02-16T04:00:05.289Z,61.73
2023-02-16T04:00:38.262Z,62.33
2023-02-16T04:01:59.620Z,60.23
2023-02-16T04:02:31.479Z,60.53
2023-02-16T04:03:04.440Z,63.13
2023-02-16T04:03:36.326Z,63.37
2023-02-16T04:04:08.287Z,63.00
2023-02-16T04:04:40.138Z,66.53
2023-02-16T04:05:11.899Z,66.53
2023-02-16T04:05:44.420Z,63.23
2023-02-16T04:06:16.666Z,62.63
2023-02-16T04:06:48.427Z,65.60
2023-02-16T04:07:20.391Z,64.03
2023-02-16T04:07:52.231Z,64.90
2023-02-16T04:08:24.014Z,65.73
2023-02-16T04:08:55.886Z,62.30
2023-02-16T04:09:27.708Z,63.90
2023-02-16T04:09:59.439Z,64.87
2023-02-16T04:10:31.436Z,64.07
2023-02-16T04:11:23.264Z,63.00
2023-02-16T04:12:13.445Z,62.27
2023-02-16T04:12:45.326Z,58.67
2023-02-16T04:13:17.264Z,62.23
2023-02-16T04:13:49.101Z,64.10
2023-02-16T04:14:20.989Z,65.10
2023-02-16T04:14:52.819Z,64.60
2023-02-16T04:15:27.769Z,64.60
2023-02-16T04:15:59.546Z,64.97
2023-02-16T04:16:31.346Z,65.87
2023-02-16T04:17:04.045Z,64.10
2023-02-16T04:17:36.256Z,65.47
2023-02-16T04:18:08.064Z,67.10
2023-02-16T04:18:39.868Z,66.47
2023-02-16T04:19:11.709Z,65.63
2023-02-16T04:19:43.480Z,63.90
2023-02-16T04:20:20.123Z,63.63
2023-02-16T04:20:52.507Z,64.20
2023-02-16T04:21:24.349Z,63.20
2023-02-16T04:21:56.271Z,64.00
2023-02-16T04:23:02.144Z,62.73
2023-02-16T04:23:44.282Z,62.10
2023-02-16T04:24:16.078Z,64.77
2023-02-16T04:24:51.010Z,67.43
2023-02-16T04:25:23.217Z,65.77
2023-02-16T04:25:55.039Z,66.53
2023-02-16T04:26:26.888Z,65.77
2023-02-16T04:26:58.717Z,64.30
2023-02-16T04:27:30.643Z,67.37
2023-02-16T04:28:03.030Z,66.23
2023-02-16T04:28:34.854Z,66.80
2023-02-16T04:29:06.683Z,67.00
2023-02-16T04:29:38.416Z,66.43
2023-02-16T04:30:13.662Z,67.00
2023-02-16T04:30:45.515Z,66.77
2023-02-16T04:31:17.474Z,63.27
2023-02-16T04:31:50.071Z,65.20
2023-02-16T04:32:22.049Z,65.67
2023-02-16T04:32:54.491Z,64.17
2023-02-16T04:33:26.269Z,62.50
2023-02-16T04:33:58.144Z,64.23
2023-02-16T04:35:02.767Z,65.27
2023-02-16T04:35:34.606Z,65.13
2023-02-16T04:36:06.817Z,62.87
2023-02-16T04:36:38.637Z,65.57
2023-02-16T04:37:10.570Z,65.37
2023-02-16T04:37:42.602Z,68.00
2023-02-16T04:38:14.389Z,66.73
2023-02-16T04:38:46.189Z,65.83
2023-02-16T04:39:18.077Z,65.37
2023-02-16T04:39:50.203Z,63.87
2023-02-16T04:40:22.318Z,66.00
2023-02-16T04:41:26.839Z,65.97
2023-02-16T04:41:58.684Z,66.50
2023-02-16T04:42:30.451Z,68.20
2023-02-16T04:43:02.302Z,65.97
2023-02-16T04:43:34.493Z,63.80
2023-02-16T04:44:06.461Z,62.43
2023-02-16T04:44:38.405Z,62.73
2023-02-16T04:45:11.669Z,65.27
2023-02-16T04:45:43.683Z,65.73
2023-02-16T04:46:16.146Z,63.87
2023-02-16T04:46:47.873Z,65.10
2023-02-16T04:47:20.516Z,64.17
2023-02-16T04:47:52.342Z,69.53
2023-02-16T04:48:24.107Z,66.40
2023-02-16T04:48:56.217Z,64.87
2023-02-16T04:49:28.112Z,63.17
2023-02-16T04:49:59.945Z,63.80
2023-02-16T04:50:31.940Z,63.10
2023-02-16T04:51:05.699Z,63.73
2023-02-16T04:51:40.229Z,63.50
2023-02-16T04:52:15.138Z,62.73
2023-02-16T04:52:46.970Z,64.20
2023-02-16T04:53:18.829Z,66.40
2023-02-16T04:54:23.544Z,63.40
2023-02-16T04:54:55.393Z,62.87
2023-02-16T04:55:27.460Z,63.03
2023-02-16T04:55:59.273Z,62.33
2023-02-16T04:56:31.104Z,61.03
2023-02-16T04:57:37.235Z,61.23
2023-02-16T04:58:09.078Z,62.07
2023-02-16T04:58:42.161Z,61.70
2023-02-16T04:59:15.448Z,62.87
2023-02-16T04:59:47.422Z,63.93
2023-02-16T05:00:20.194Z,63.40
2023-02-16T05:00:52.494Z,65.37
2023-02-16T05:01:26.447Z,62.57
2023-02-16T05:01:58.792Z,65.50
2023-02-16T05:02:32.829Z,62.87
2023-02-16T05:03:04.658Z,61.20
2023-02-16T05:03:36.427Z,62.17
2023-02-16T05:04:11.848Z,64.77
2023-02-16T05:04:43.708Z,65.10
2023-02-16T05:05:15.682Z,63.20
2023-02-16T05:05:47.669Z,62.67
2023-02-16T05:06:20.712Z,62.00
2023-02-16T05:07:28.598Z,63.83
2023-02-16T05:08:00.350Z,62.60
2023-02-16T05:08:32.138Z,61.50
2023-02-16T05:09:05.022Z,61.30
2023-02-16T05:09:36.864Z,62.17
2023-02-16T05:10:42.665Z,64.10
2023-02-16T05:11:33.765Z,64.60
2023-02-16T05:12:25.237Z,62.87
2023-02-16T05:13:15.475Z,61.73
2023-02-16T05:14:05.974Z,62.33
2023-02-16T05:14:44.680Z,62.13
2023-02-16T05:15:16.728Z,64.57
2023-02-16T05:15:48.639Z,63.10
2023-02-16T05:16:22.228Z,63.20
2023-02-16T05:16:54.204Z,61.83
2023-02-16T05:17:27.156Z,61.87
2023-02-16T05:17:58.948Z,63.93
2023-02-16T05:18:30.797Z,62.37
2023-02-16T05:19:02.648Z,60.80
2023-02-16T05:20:07.508Z,61.83
2023-02-16T05:20:57.763Z,63.60
2023-02-16T05:21:32.596Z,64.47
2023-02-16T05:22:04.481Z,63.10
2023-02-16T05:22:39.152Z,61.60
2023-02-16T05:23:11.092Z,62.93
2023-02-16T05:23:42.887Z,60.80
2023-02-16T05:24:14.709Z,61.63
2023-02-16T05:24:47.423Z,60.60
2023-02-16T05:25:19.298Z,62.23
2023-02-16T05:25:51.128Z,63.10
2023-02-16T05:26:55.722Z,61.53
2023-02-16T05:27:43.202Z,60.77
2023-02-16T05:28:15.063Z,61.70
2023-02-16T05:28:46.845Z,62.23
2023-02-16T05:29:18.649Z,62.20
2023-02-16T05:29:50.924Z,61.37
2023-02-16T05:30:22.987Z,63.13
2023-02-16T05:30:54.910Z,64.97
2023-02-16T05:31:28.154Z,66.00
2023-02-16T05:32:02.644Z,63.97
2023-02-16T05:33:08.995Z,65.07
2023-02-16T05:33:40.928Z,64.00
2023-02-16T05:34:31.000Z,65.97
2023-02-16T05:35:02.762Z,64.47
2023-02-16T05:35:35.140Z,64.43
2023-02-16T05:36:08.091Z,66.03
2023-02-16T05:37:11.712Z,65.93
2023-02-16T05:37:43.556Z,65.70
2023-02-16T05:38:48.574Z,65.00
2023-02-16T05:39:22.395Z,64.73
2023-02-16T05:39:57.501Z,66.27
2023-02-16T05:40:29.413Z,67.03
2023-02-16T05:41:40.980Z,66.93
2023-02-16T05:42:13.517Z,64.53
2023-02-16T05:43:19.332Z,65.10
2023-02-16T05:44:24.266Z,66.73
2023-02-16T05:44:56.032Z,65.70
2023-02-16T05:45:31.528Z,65.57
2023-02-16T05:46:38.325Z,66.57
2023-02-16T05:47:13.489Z,65.10
2023-02-16T05:47:47.130Z,63.27
2023-02-16T05:48:19.214Z,63.97
2023-02-16T05:48:52.256Z,65.13
2023-02-16T05:49:24.280Z,67.27
2023-02-16T05:49:56.135Z,69.00
2023-02-16T05:50:27.942Z,74.40
2023-02-16T05:51:33.586Z,69.77
2023-02-16T05:52:05.613Z,66.53
2023-02-16T05:52:37.507Z,66.47
2023-02-16T05:53:09.564Z,67.43
2023-02-16T05:54:17.576Z,65.60
2023-02-16T05:54:49.406Z,64.47
2023-02-16T05:55:54.140Z,67.57
2023-02-16T05:56:26.579Z,67.73
2023-02-16T05:56:58.415Z,68.00
2023-02-16T05:57:30.279Z,64.50
2023-02-16T05:58:02.269Z,62.57
2023-02-16T05:59:06.899Z,64.67
2023-02-16T05:59:38.792Z,67.27
2023-02-16T06:00:15.439Z,66.63
2023-02-16T06:00:47.315Z,68.70
2023-02-16T06:01:19.232Z,69.77
2023-02-16T06:01:52.173Z,68.10
2023-02-16T06:02:24.357Z,63.50
2023-02-16T06:02:56.210Z,64.77
2023-02-16T06:03:31.034Z,65.87
2023-02-16T06:04:17.150Z,66.50
2023-02-16T06:05:13.660Z,65.47
2023-02-16T06:06:43.762Z,66.73
2023-02-16T06:07:15.571Z,67.80
2023-02-16T06:08:23.855Z,69.07
2023-02-16T06:08:59.459Z,69.33
2023-02-16T06:09:32.010Z,67.47
2023-02-16T06:10:04.416Z,65.80
2023-02-16T06:10:39.039Z,66.60
2023-02-16T06:11:33.581Z,66.17
2023-02-16T06:12:22.112Z,66.93
2023-02-16T06:12:53.983Z,67.37
2023-02-16T06:13:26.664Z,67.13
2023-02-16T06:14:31.351Z,65.60
2023-02-16T06:15:05.209Z,66.50
2023-02-16T06:15:37.122Z,66.27
2023-02-16T06:17:06.740Z,67.30
2023-02-16T06:17:38.577Z,71.27
2023-02-16T06:18:11.533Z,82.17
2023-02-16T06:18:44.917Z,74.63
2023-02-16T06:19:49.866Z,67.70
2023-02-16T06:20:21.710Z,67.93
2023-02-16T06:20:58.089Z,67.67
2023-02-16T06:21:45.146Z,67.03
2023-02-16T06:22:17.016Z,66.77
2023-02-16T06:23:22.977Z,68.97
2023-02-16T06:23:54.854Z,69.80
2023-02-16T06:24:27.985Z,69.57
2023-02-16T06:24:59.780Z,66.97
2023-02-16T06:25:31.625Z,67.23
2023-02-16T06:26:03.481Z,71.50
2023-02-16T06:27:50.158Z,72.47
2023-02-16T06:28:22.108Z,67.50
2023-02-16T06:28:54.913Z,67.47
2023-02-16T06:30:04.463Z,72.80
2023-02-16T06:30:36.682Z,68.50
2023-02-16T06:31:40.918Z,68.13
2023-02-16T06:32:17.254Z,68.23
2023-02-16T06:32:52.598Z,65.47
2023-02-16T06:33:24.432Z,63.93
2023-02-16T06:34:29.116Z,71.50
2023-02-16T06:35:01.098Z,70.20
2023-02-16T06:35:32.946Z,71.57
2023-02-16T06:36:08.035Z,69.23
2023-02-16T06:37:12.780Z,65.90
2023-02-16T06:37:48.408Z,68.43
2023-02-16T06:38:20.245Z,67.03
2023-02-16T06:38:52.426Z,66.73
2023-02-16T06:39:24.350Z,67.47
2023-02-16T06:39:56.095Z,67.83
2023-02-16T06:40:28.044Z,70.70
2023-02-16T06:41:40.990Z,69.80
2023-02-16T06:42:12.791Z,69.50
2023-02-16T06:42:44.931Z,69.17
2023-02-16T06:43:16.656Z,68.13
2023-02-16T06:43:48.438Z,63.67
2023-02-16T06:44:20.424Z,66.67
2023-02-16T06:44:52.201Z,65.67
2023-02-16T06:45:24.065Z,68.63
2023-02-16T06:46:29.211Z,65.73
2023-02-16T06:47:01.068Z,64.47
2023-02-16T06:48:07.468Z,67.57
2023-02-16T06:48:42.477Z,68.07
2023-02-16T06:49:18.333Z,65.57
2023-02-16T06:49:50.475Z,63.87
2023-02-16T06:50:22.532Z,65.03
2023-02-16T06:50:54.550Z,64.53
2023-02-16T06:51:59.260Z,65.47
2023-02-16T06:53:07.727Z,61.67
2023-02-16T06:53:39.497Z,61.20
2023-02-16T06:54:45.553Z,59.93
2023-02-16T06:55:19.255Z,62.67
2023-02-16T06:55:51.658Z,67.33
2023-02-16T06:56:59.106Z,71.77
2023-02-16T06:57:31.430Z,74.13
2023-02-16T06:58:36.099Z,68.37
2023-02-16T06:59:08.012Z,65.60
2023-02-16T06:59:40.223Z,69.77
2023-02-16T07:00:12.653Z,70.87
2023-02-16T07:00:44.558Z,71.40
2023-02-16T07:01:52.494Z,69.37
2023-02-16T07:02:24.302Z,68.40
2023-02-16T07:02:56.516Z,72.00
2023-02-16T07:04:04.191Z,76.90
2023-02-16T07:04:37.757Z,76.57
2023-02-16T07:05:11.014Z,75.93
2023-02-16T07:05:44.294Z,73.47
2023-02-16T07:06:16.352Z,74.37
2023-02-16T07:06:48.182Z,75.00
2023-02-16T07:07:19.979Z,73.60
2023-02-16T07:08:24.650Z,86.67
2023-02-16T07:08:56.570Z,87.00
2023-02-16T07:09:28.554Z,88.13
2023-02-16T07:10:00.502Z,102.73
2023-02-16T07:10:47.436Z,110.70
2023-02-16T07:11:22.069Z,111.07
2023-02-16T07:11:54.569Z,111.13
2023-02-16T07:12:26.469Z,119.27
2023-02-16T07:12:58.318Z,124.50
2023-02-16T07:13:30.138Z,123.10
2023-02-16T07:14:02.315Z,116.73
2023-02-16T07:14:34.208Z,115.60
2023-02-16T07:15:07.147Z,116.33
2023-02-16T07:15:39.448Z,123.73
2023-02-16T07:16:11.991Z,147.43
2023-02-16T07:16:43.822Z,168.57
2023-02-16T07:17:15.697Z,136.00
2023-02-16T07:17:47.477Z,123.33
2023-02-16T07:18:19.287Z,128.37
2023-02-16T07:18:51.637Z,106.90
2023-02-16T07:19:23.418Z,97.00
2023-02-16T07:19:55.272Z,105.70
2023-02-16T07:20:27.912Z,135.03
2023-02-16T07:21:00.193Z,138.37
2023-02-16T07:21:31.983Z,124.60
2023-02-16T07:22:05.500Z,114.27
2023-02-16T07:22:37.336Z,113.90
2023-02-16T07:23:09.185Z,117.10
2023-02-16T07:23:41.180Z,123.40
2023-02-16T07:24:12.978Z,121.03
2023-02-16T07:24:44.806Z,115.97
2023-02-16T07:25:16.773Z,122.80
2023-02-16T07:25:48.682Z,123.07
2023-02-16T07:26:20.530Z,122.80
2023-02-16T07:26:52.394Z,120.67
2023-02-16T07:27:25.361Z,123.83
2023-02-16T07:27:57.112Z,123.67
2023-02-16T07:28:28.985Z,116.70
2023-02-16T07:29:00.803Z,118.03
2023-02-16T07:29:32.608Z,120.33
2023-02-16T07:30:04.631Z,118.57
2023-02-16T07:30:36.878Z,114.40
2023-02-16T07:31:15.819Z,112.70
2023-02-16T07:31:47.988Z,114.10
2023-02-16T07:32:20.337Z,108.10
2023-02-16T07:32:52.304Z,106.10
2023-02-16T07:33:24.128Z,97.23
2023-02-16T07:33:55.957Z,94.63
2023-02-16T07:34:27.733Z,96.43
2023-02-16T07:34:59.728Z,95.87
2023-02-16T07:35:31.546Z,97.43
2023-02-16T07:36:03.932Z,91.97
2023-02-16T07:36:35.825Z,82.57
2023-02-16T07:37:07.647Z,80.50
2023-02-16T07:37:39.904Z,84.63
2023-02-16T07:38:11.768Z,82.23
2023-02-16T07:38:43.712Z,79.80
2023-02-16T07:39:17.012Z,77.60
2023-02-16T07:39:48.812Z,75.77
2023-02-16T07:40:20.736Z,75.23
2023-02-16T07:40:52.619Z,75.83
2023-02-16T07:41:25.282Z,72.67
2023-02-16T07:41:57.120Z,71.73
2023-02-16T07:42:32.954Z,68.17
2023-02-16T07:43:06.536Z,69.40
2023-02-16T07:43:39.512Z,69.63
2023-02-16T07:44:11.381Z,68.20
2023-02-16T07:44:43.219Z,64.07
2023-02-16T07:45:15.135Z,64.43
2023-02-16T07:45:46.981Z,66.63
2023-02-16T07:46:18.830Z,66.60
2023-02-16T07:46:50.663Z,65.17
2023-02-16T07:47:22.633Z,65.60
2023-02-16T07:47:54.545Z,68.20
2023-02-16T07:48:26.536Z,65.87
2023-02-16T07:48:58.286Z,65.63
2023-02-16T07:49:30.050Z,66.07
2023-02-16T07:50:01.881Z,66.97
2023-02-16T07:50:33.751Z,69.97
2023-02-16T07:51:06.064Z,68.57
2023-02-16T07:51:38.154Z,70.87
2023-02-16T07:52:09.990Z,70.53
2023-02-16T07:52:41.772Z,67.60
2023-02-16T07:53:13.723Z,67.37
2023-02-16T07:53:45.500Z,68.57
2023-02-16T07:54:17.328Z,69.53
2023-02-16T07:54:49.231Z,68.93
2023-02-16T07:55:21.097Z,68.00
2023-02-16T07:55:53.034Z,70.23
2023-02-16T07:56:28.733Z,70.97
2023-02-16T07:57:00.565Z,72.17
2023-02-16T07:57:32.368Z,66.60
2023-02-16T07:58:04.808Z,67.47
2023-02-16T07:58:36.939Z,67.37
2023-02-16T07:59:08.771Z,68.97
2023-02-16T07:59:40.962Z,70.00
2023-02-16T08:00:13.185Z,69.23
2023-02-16T08:00:45.004Z,67.07
2023-02-16T08:01:18.999Z,69.57
2023-02-16T08:01:50.925Z,70.33
2023-02-16T08:02:23.748Z,69.57
2023-02-16T08:02:55.787Z,71.00
2023-02-16T08:03:27.699Z,70.60
2023-02-16T08:03:59.674Z,70.20
2023-02-16T08:04:31.630Z,69.60
2023-02-16T08:05:03.469Z,71.67
2023-02-16T08:05:35.381Z,69.97
2023-02-16T08:06:08.796Z,73.80
2023-02-16T08:06:40.699Z,69.67
2023-02-16T08:07:14.153Z,71.00
2023-02-16T08:07:46.746Z,72.67
2023-02-16T08:08:18.714Z,72.73
2023-02-16T08:08:50.981Z,73.33
2023-02-16T08:09:24.489Z,69.50
2023-02-16T08:09:56.351Z,67.73
2023-02-16T08:10:28.234Z,71.73